createdAt,value
2022-10-24T00:01:13.950Z,98443.25
2022-10-24T00:03:40.949Z,98443.91
2022-10-24T00:06:10.999Z,98448.44
2022-10-24T00:08:38.772Z,98443.09
2022-10-24T00:11:15.724Z,98436.34
2022-10-24T00:13:43.611Z,98443.97
2022-10-24T00:16:11.608Z,98442.38
2022-10-24T00:18:38.981Z,98437.06
2022-10-24T00:21:07.161Z,98449.19
2022-10-24T00:23:34.670Z,98434.19
2022-10-24T00:26:02.152Z,98445.03
2022-10-24T00:28:29.592Z,98448.13
2022-10-24T00:30:56.863Z,98439.25
2022-10-24T00:33:24.379Z,98440.31
2022-10-24T00:35:51.528Z,98436.59
2022-10-24T00:38:18.620Z,98436.00
2022-10-24T00:40:45.619Z,98442.97
2022-10-24T00:43:24.835Z,98445.66
2022-10-24T00:45:59.888Z,98432.50
2022-10-24T00:48:42.325Z,98429.25
2022-10-24T00:51:22.480Z,98432.94
2022-10-24T00:53:51.880Z,98433.75
2022-10-24T00:56:22.162Z,98437.47
2022-10-24T00:58:49.593Z,98443.88
2022-10-24T01:01:16.753Z,98443.25
2022-10-24T01:03:43.890Z,98437.75
2022-10-24T01:06:28.365Z,98443.09
2022-10-24T01:09:06.643Z,98450.31
2022-10-24T01:11:52.130Z,98434.06
2022-10-24T01:14:22.892Z,98437.41
2022-10-24T01:17:05.821Z,98438.06
2022-10-24T01:19:47.824Z,98433.97
2022-10-24T01:22:22.648Z,98432.31
2022-10-24T01:24:49.386Z,98429.88
2022-10-24T01:27:39.613Z,98440.56
2022-10-24T01:30:09.985Z,98440.56
2022-10-24T01:32:58.676Z,98440.31
2022-10-24T01:35:36.604Z,98455.16
2022-10-24T01:38:14.029Z,98459.06
2022-10-24T01:40:46.504Z,98451.28
2022-10-24T01:43:15.566Z,98447.59
2022-10-24T01:45:46.489Z,98451.69
2022-10-24T01:48:16.892Z,98449.38
2022-10-24T01:50:45.667Z,98455.97
2022-10-24T01:53:13.703Z,98441.81
2022-10-24T01:55:41.451Z,98446.75
2022-10-24T01:58:09.048Z,98456.00
2022-10-24T02:00:36.181Z,98443.09
2022-10-24T02:03:18.470Z,98454.59
2022-10-24T02:05:49.518Z,98440.84
2022-10-24T02:08:20.039Z,98448.66
2022-10-24T02:10:50.660Z,98442.91
2022-10-24T02:13:45.245Z,98440.03
2022-10-24T02:16:13.250Z,98453.59
2022-10-24T02:18:40.535Z,98445.59
2022-10-24T02:21:10.135Z,98447.66
2022-10-24T02:23:44.197Z,98467.38
2022-10-24T02:26:18.111Z,98457.13
2022-10-24T02:28:46.420Z,98459.56
2022-10-24T02:31:21.985Z,98464.31
2022-10-24T02:33:50.227Z,98460.00
2022-10-24T02:36:19.472Z,98464.91
2022-10-24T02:38:48.256Z,98475.38
2022-10-24T02:41:20.667Z,98466.75
2022-10-24T02:43:50.513Z,98474.34
2022-10-24T02:46:18.768Z,98478.06
2022-10-24T02:48:49.974Z,98476.00
2022-10-24T02:51:18.771Z,98470.84
2022-10-24T02:53:46.465Z,98475.19
2022-10-24T02:56:13.559Z,98472.31
2022-10-24T02:58:41.061Z,98483.41
2022-10-24T03:01:08.156Z,98473.81
2022-10-24T03:03:35.207Z,98474.88
2022-10-24T03:06:02.250Z,98481.03
2022-10-24T03:08:29.188Z,98485.34
2022-10-24T03:10:56.351Z,98478.41
2022-10-24T03:13:23.384Z,98482.06
2022-10-24T03:15:50.264Z,98488.00
2022-10-24T03:18:17.307Z,98487.59
2022-10-24T03:20:44.336Z,98493.53
2022-10-24T03:23:13.113Z,98497.19
2022-10-24T03:25:40.102Z,98489.56
2022-10-24T03:28:10.014Z,98492.00
2022-10-24T03:30:36.945Z,98489.53
2022-10-24T03:33:03.992Z,98493.88
2022-10-24T03:35:31.014Z,98498.16
2022-10-24T03:37:57.938Z,98492.81
2022-10-24T03:40:24.838Z,98510.69
2022-10-24T03:42:51.883Z,98511.31
2022-10-24T03:45:18.974Z,98514.56
2022-10-24T03:47:45.853Z,98503.69
2022-10-24T03:50:12.861Z,98505.53
2022-10-24T03:52:39.785Z,98518.06
2022-10-24T03:55:07.105Z,98526.28
2022-10-24T03:57:34.143Z,98525.28
2022-10-24T04:00:01.060Z,98531.44
2022-10-24T04:02:28.189Z,98529.81
2022-10-24T04:04:55.320Z,98532.25
2022-10-24T04:07:22.640Z,98527.31
2022-10-24T04:09:49.742Z,98534.91
2022-10-24T04:12:16.828Z,98537.78
2022-10-24T04:14:43.759Z,98543.34
2022-10-24T04:17:12.516Z,98543.75
2022-10-24T04:19:39.572Z,98546.66
2022-10-24T04:22:06.616Z,98549.31
2022-10-24T04:24:33.734Z,98546.41
2022-10-24T04:27:03.544Z,98540.06
2022-10-24T04:29:30.439Z,98541.06
2022-10-24T04:31:57.499Z,98543.34
2022-10-24T04:34:24.611Z,98551.75
2022-10-24T04:36:51.610Z,98565.94
2022-10-24T04:39:19.929Z,98565.94
2022-10-24T04:41:47.110Z,98570.84
2022-10-24T04:44:14.164Z,98559.13
2022-10-24T04:46:43.255Z,98559.75
2022-10-24T04:49:10.511Z,98569.19
2022-10-24T04:51:37.483Z,98557.69
2022-10-24T04:54:04.787Z,98572.66
2022-10-24T04:56:32.024Z,98573.47
2022-10-24T04:58:58.987Z,98569.75
2022-10-24T05:01:25.915Z,98582.28
2022-10-24T05:03:53.145Z,98592.53
2022-10-24T05:06:20.255Z,98597.69
2022-10-24T05:08:47.280Z,98597.47
2022-10-24T05:11:17.204Z,98600.72
2022-10-24T05:13:44.238Z,98602.38
2022-10-24T05:16:11.244Z,98596.44
2022-10-24T05:18:38.314Z,98597.25
2022-10-24T05:21:05.520Z,98605.66
2022-10-24T05:23:32.523Z,98596.63
2022-10-24T05:25:59.700Z,98616.34
2022-10-24T05:28:29.180Z,98613.69
2022-10-24T05:30:56.177Z,98632.13
2022-10-24T05:33:23.755Z,98617.28
2022-10-24T05:35:51.552Z,98625.53
2022-10-24T05:38:18.588Z,98627.41
2022-10-24T05:40:49.621Z,98628.41
2022-10-24T05:43:16.747Z,98620.84
2022-10-24T05:45:44.065Z,98640.97
2022-10-24T05:48:11.120Z,98629.84
2022-10-24T05:50:38.268Z,98633.94
2022-10-24T05:53:05.367Z,98642.97
2022-10-24T05:55:33.843Z,98641.31
2022-10-24T05:58:00.942Z,98638.22
2022-10-24T06:00:28.354Z,98637.38
2022-10-24T06:02:55.406Z,98641.69
2022-10-24T06:05:22.707Z,98643.91
2022-10-24T06:07:49.673Z,98651.13
2022-10-24T06:10:16.859Z,98652.34
2022-10-24T06:12:44.249Z,98650.50
2022-10-24T06:15:15.304Z,98652.72
2022-10-24T06:17:42.383Z,98663.81
2022-10-24T06:20:10.022Z,98664.59
2022-10-24T06:22:36.953Z,98663.56
2022-10-24T06:25:04.354Z,98663.16
2022-10-24T06:27:31.451Z,98670.78
2022-10-24T06:29:58.468Z,98665.84
2022-10-24T06:32:25.467Z,98672.13
2022-10-24T06:34:52.425Z,98666.31
2022-10-24T06:37:19.340Z,98655.38
2022-10-24T06:39:46.557Z,98668.53
2022-10-24T06:42:13.517Z,98660.88
2022-10-24T06:44:41.761Z,98669.34
2022-10-24T06:47:09.051Z,98671.16
2022-10-24T06:49:35.988Z,98670.94
2022-10-24T06:52:02.917Z,98671.16
2022-10-24T06:54:31.714Z,98666.47
2022-10-24T06:56:58.682Z,98677.59
2022-10-24T06:59:25.824Z,98676.56
2022-10-24T07:01:52.980Z,98683.97
2022-10-24T07:04:20.182Z,98682.91
2022-10-24T07:06:47.180Z,98685.75
2022-10-24T07:09:17.355Z,98690.22
2022-10-24T07:11:44.964Z,98684.44
2022-10-24T07:14:12.359Z,98689.84
2022-10-24T07:16:39.776Z,98691.56
2022-10-24T07:19:06.992Z,98696.50
2022-10-24T07:21:34.738Z,98690.13
2022-10-24T07:24:03.222Z,98698.63
2022-10-24T07:26:31.284Z,98693.75
2022-10-24T07:31:35.473Z,98701.00
2022-10-24T07:34:04.443Z,98708.75
2022-10-24T07:36:31.461Z,98703.72
2022-10-24T07:38:59.548Z,98704.28
2022-10-24T07:41:30.363Z,98712.81
2022-10-24T07:43:58.531Z,98714.31
2022-10-24T07:46:26.288Z,98714.88
2022-10-24T07:48:53.900Z,98710.44
2022-10-24T07:51:21.408Z,98707.75
2022-10-24T07:53:48.931Z,98715.72
2022-10-24T07:56:17.920Z,98719.44
2022-10-24T07:58:46.514Z,98715.72
2022-10-24T08:01:25.248Z,98720.38
2022-10-24T08:03:52.385Z,98721.06
2022-10-24T08:06:22.788Z,98714.03
2022-10-24T08:08:49.877Z,98715.47
2022-10-24T08:11:28.381Z,98725.50
2022-10-24T08:13:57.714Z,98721.34
2022-10-24T08:16:25.384Z,98720.25
2022-10-24T08:18:53.884Z,98730.50
2022-10-24T08:21:22.909Z,98742.44
2022-10-24T08:23:52.373Z,98729.47
2022-10-24T08:26:21.646Z,98747.50
2022-10-24T08:28:49.247Z,98745.72
2022-10-24T08:31:19.211Z,98742.50
2022-10-24T08:33:46.753Z,98744.50
2022-10-24T08:36:17.825Z,98738.50
2022-10-24T08:38:45.240Z,98747.63
2022-10-24T08:41:24.884Z,98753.75
2022-10-24T08:43:53.628Z,98759.19
2022-10-24T08:46:42.091Z,98758.97
2022-10-24T08:49:23.734Z,98761.50
2022-10-24T08:52:21.963Z,98753.59
2022-10-24T08:54:50.323Z,98769.75
2022-10-24T08:57:23.409Z,98761.66
2022-10-24T08:59:52.645Z,98770.34
2022-10-24T09:02:27.436Z,98768.69
2022-10-24T09:04:58.590Z,98763.50
2022-10-24T09:07:26.933Z,98778.38
2022-10-24T09:10:11.095Z,98771.34
2022-10-24T09:12:40.261Z,98779.00
2022-10-24T09:15:23.004Z,98769.78
2022-10-24T09:17:51.381Z,98778.03
2022-10-24T09:20:31.988Z,98799.50
2022-10-24T09:23:02.447Z,98803.72
2022-10-24T09:25:34.069Z,98808.28
2022-10-24T09:28:06.522Z,98814.03
2022-10-24T09:30:36.761Z,98824.00
2022-10-24T09:33:31.355Z,98818.75
2022-10-24T09:36:03.673Z,98824.94
2022-10-24T09:38:42.163Z,98825.56
2022-10-24T09:41:18.026Z,98825.34
2022-10-24T09:43:47.545Z,98825.94
2022-10-24T09:46:37.873Z,98828.91
2022-10-24T09:49:20.717Z,98832.09
2022-10-24T09:51:51.446Z,98841.38
2022-10-24T09:54:19.059Z,98841.41
2022-10-24T09:57:08.700Z,98839.78
2022-10-24T09:59:42.352Z,98834.59
2022-10-24T10:02:34.885Z,98837.50
2022-10-24T10:05:05.445Z,98831.81
2022-10-24T10:07:38.578Z,98846.00
2022-10-24T10:10:30.453Z,98844.69
2022-10-24T10:13:01.002Z,98842.13
2022-10-24T10:15:37.711Z,98835.69
2022-10-24T10:18:24.283Z,98840.56
2022-10-24T10:21:22.206Z,98851.47
2022-10-24T10:23:52.143Z,98851.75
2022-10-24T10:26:24.537Z,98856.91
2022-10-24T10:29:03.356Z,98859.50
2022-10-24T10:31:44.072Z,98846.50
2022-10-24T10:34:22.774Z,98859.69
2022-10-24T10:37:11.552Z,98855.50
2022-10-24T10:40:16.473Z,98869.44
2022-10-24T10:43:20.924Z,98859.22
2022-10-24T10:46:29.906Z,98862.22
2022-10-24T10:49:15.243Z,98869.38
2022-10-24T10:51:51.981Z,98868.72
2022-10-24T10:54:41.136Z,98870.84
2022-10-24T10:57:21.020Z,98868.22
2022-10-24T11:00:13.715Z,98868.38
2022-10-24T11:03:35.331Z,98865.97
2022-10-24T11:06:10.987Z,98873.22
2022-10-24T11:09:04.100Z,98860.88
2022-10-24T11:15:14.657Z,98853.00
2022-10-24T11:17:56.988Z,98857.91
2022-10-24T11:20:37.256Z,98854.69
2022-10-24T11:23:10.111Z,98856.69
2022-10-24T11:25:49.684Z,98856.84
2022-10-24T11:28:41.238Z,98853.22
2022-10-24T11:31:13.918Z,98847.19
2022-10-24T11:33:47.307Z,98853.16
2022-10-24T11:36:46.471Z,98856.69
2022-10-24T11:39:25.975Z,98855.59
2022-10-24T11:41:58.921Z,98850.97
2022-10-24T11:44:50.395Z,98861.06
2022-10-24T11:47:26.653Z,98859.25
2022-10-24T11:50:25.636Z,98863.00
2022-10-24T11:52:56.444Z,98866.91
2022-10-24T11:55:47.231Z,98868.16
2022-10-24T11:58:19.123Z,98864.16
2022-10-24T12:00:51.794Z,98883.59
2022-10-24T12:03:36.426Z,98889.63
2022-10-24T12:06:28.226Z,98881.94
2022-10-24T12:09:30.854Z,98901.00
2022-10-24T12:12:08.190Z,98889.50
2022-10-24T12:14:35.288Z,98890.75
2022-10-24T12:17:18.548Z,98892.78
2022-10-24T12:19:51.699Z,98897.28
2022-10-24T12:25:15.863Z,98904.00
2022-10-24T12:27:43.178Z,98909.34
2022-10-24T12:30:12.942Z,98903.03
2022-10-24T12:32:45.230Z,98904.13
2022-10-24T12:35:31.747Z,98904.19
2022-10-24T12:37:59.785Z,98914.00
2022-10-24T12:40:45.368Z,98907.94
2022-10-24T12:43:17.649Z,98922.03
2022-10-24T12:45:44.761Z,98915.59
2022-10-24T12:48:25.850Z,98917.53
2022-10-24T12:51:28.600Z,98925.34
2022-10-24T12:54:04.462Z,98917.69
2022-10-24T12:56:34.118Z,98921.00
2022-10-24T12:59:02.365Z,98922.56
2022-10-24T13:01:35.740Z,98920.19
2022-10-24T13:04:13.525Z,98925.94
2022-10-24T13:07:09.776Z,98932.75
2022-10-24T13:10:07.798Z,98937.34
2022-10-24T13:13:03.216Z,98946.28
2022-10-24T13:15:51.310Z,98946.00
2022-10-24T13:18:42.873Z,98946.00
2022-10-24T13:21:22.277Z,98952.63
2022-10-24T13:23:49.880Z,98954.69
2022-10-24T13:26:40.020Z,98955.16
2022-10-24T13:29:13.874Z,98959.47
2022-10-24T13:31:44.688Z,98958.41
2022-10-24T13:34:17.534Z,98957.94
2022-10-24T13:36:46.441Z,98972.09
2022-10-24T13:39:19.509Z,98964.88
2022-10-24T13:41:55.948Z,98968.25
2022-10-24T13:44:30.534Z,98974.34
2022-10-24T13:47:17.680Z,98987.41
2022-10-24T13:49:56.736Z,98981.84
2022-10-24T13:52:45.629Z,98984.97
2022-10-24T13:55:19.005Z,98989.16
2022-10-24T13:58:23.897Z,98993.53
2022-10-24T14:00:52.304Z,98995.47
2022-10-24T14:03:21.201Z,98996.97
2022-10-24T14:05:50.385Z,99002.56
2022-10-24T14:08:24.713Z,99004.63
2022-10-24T14:10:53.432Z,99000.13
2022-10-24T14:13:21.968Z,99009.59
2022-10-24T14:15:50.921Z,99016.59
2022-10-24T14:18:20.511Z,99011.06
2022-10-24T14:21:02.870Z,99021.34
2022-10-24T14:23:35.719Z,99026.88
2022-10-24T14:26:07.986Z,99020.72
2022-10-24T14:28:38.504Z,99032.84
2022-10-24T14:31:08.688Z,99036.38
2022-10-24T14:33:44.422Z,99040.06
2022-10-24T14:36:12.676Z,99044.56
2022-10-24T14:38:40.022Z,99047.66
2022-10-24T14:41:10.349Z,99054.19
2022-10-24T14:43:42.280Z,99051.50
2022-10-24T14:46:12.665Z,99063.41
2022-10-24T14:48:42.915Z,99065.44
2022-10-24T14:51:39.259Z,99068.13
2022-10-24T14:54:32.674Z,99068.91
2022-10-24T14:57:00.912Z,99064.34
2022-10-24T14:59:37.654Z,99069.06
2022-10-24T15:02:21.441Z,99076.00
2022-10-24T15:04:52.119Z,99069.41
2022-10-24T15:08:16.544Z,99079.66
2022-10-24T15:10:42.732Z,99077.09
2022-10-24T15:13:12.412Z,99087.38
2022-10-24T15:15:45.204Z,99096.03
2022-10-24T15:18:18.239Z,99090.22
2022-10-24T15:20:47.417Z,99098.81
2022-10-24T15:23:31.273Z,99100.66
2022-10-24T15:26:09.760Z,99110.44
2022-10-24T15:29:08.770Z,99112.00
2022-10-24T15:31:38.994Z,99110.25
2022-10-24T15:34:08.925Z,99107.31
2022-10-24T15:36:37.039Z,99127.19
2022-10-24T15:39:08.080Z,99128.16
2022-10-24T15:41:35.068Z,99130.81
2022-10-24T15:44:03.286Z,99132.03
2022-10-24T15:46:30.782Z,99126.28
2022-10-24T15:48:57.832Z,99123.78
2022-10-24T15:51:26.873Z,99135.28
2022-10-24T15:53:54.315Z,99122.47
2022-10-24T15:56:21.799Z,99131.09
2022-10-24T16:01:30.491Z,99110.94
2022-10-24T16:03:58.504Z,99129.44
2022-10-24T16:06:26.425Z,99135.09
2022-10-24T16:08:53.715Z,99142.88
2022-10-24T16:11:21.698Z,99142.47
2022-10-24T16:13:49.299Z,99143.16
2022-10-24T16:16:16.378Z,99148.56
2022-10-24T16:18:43.449Z,99154.00
2022-10-24T16:21:18.376Z,99155.69
2022-10-24T16:23:46.128Z,99159.16
2022-10-24T16:26:13.403Z,99158.25
2022-10-24T16:28:40.550Z,99162.13
2022-10-24T16:31:07.757Z,99166.16
2022-10-24T16:33:34.976Z,99160.22
2022-10-24T16:36:02.046Z,99169.97
2022-10-24T16:38:29.388Z,99168.41
2022-10-24T16:40:56.560Z,99177.19
2022-10-24T16:43:23.543Z,99172.06
2022-10-24T16:46:01.469Z,99172.72
2022-10-24T16:48:32.192Z,99181.16
2022-10-24T16:50:59.457Z,99174.91
2022-10-24T16:53:29.828Z,99183.03
2022-10-24T16:55:56.920Z,99188.16
2022-10-24T16:58:24.097Z,99184.72
2022-10-24T17:00:51.157Z,99192.91
2022-10-24T17:03:20.880Z,99194.09
2022-10-24T17:05:52.343Z,99202.72
2022-10-24T17:08:19.517Z,99202.22
2022-10-24T17:10:46.497Z,99208.50
2022-10-24T17:13:14.558Z,99204.47
2022-10-24T17:15:44.136Z,99210.13
2022-10-24T17:18:12.531Z,99206.47
2022-10-24T17:20:44.710Z,99201.16
2022-10-24T17:23:13.824Z,99209.50
2022-10-24T17:25:41.516Z,99213.63
2022-10-24T17:28:08.655Z,99215.00
2022-10-24T17:30:36.933Z,99212.69
2022-10-24T17:33:03.960Z,99214.16
2022-10-24T17:35:32.357Z,99217.47
2022-10-24T17:38:26.315Z,99215.50
2022-10-24T17:40:54.878Z,99198.03
2022-10-24T17:43:26.763Z,99216.25
2022-10-24T17:46:05.192Z,99211.31
2022-10-24T17:48:35.693Z,99222.16
2022-10-24T17:51:03.025Z,99237.59
2022-10-24T17:53:29.943Z,99234.00
2022-10-24T17:55:57.719Z,99232.81
2022-10-24T17:58:25.500Z,99238.63
2022-10-24T18:00:52.505Z,99234.84
2022-10-24T18:03:20.310Z,99229.75
2022-10-24T18:05:48.411Z,99236.75
2022-10-24T18:08:17.549Z,99237.47
2022-10-24T18:10:45.547Z,99249.78
2022-10-24T18:13:14.729Z,99241.53
2022-10-24T18:15:41.675Z,99244.06
2022-10-24T18:18:09.012Z,99255.69
2022-10-24T18:20:36.282Z,99239.34
2022-10-24T18:23:04.126Z,99252.28
2022-10-24T18:25:32.419Z,99258.41
2022-10-24T18:28:02.742Z,99254.94
2022-10-24T18:30:35.508Z,99247.34
2022-10-24T18:33:02.939Z,99257.78
2022-10-24T18:35:33.217Z,99259.94
2022-10-24T18:38:00.501Z,99264.94
2022-10-24T18:40:27.982Z,99256.03
2022-10-24T18:43:06.596Z,99264.63
2022-10-24T18:45:36.271Z,99265.81
2022-10-24T18:48:04.099Z,99264.28
2022-10-24T18:50:32.406Z,99253.53
2022-10-24T18:53:20.035Z,99272.09
2022-10-24T18:56:02.575Z,99263.50
2022-10-24T18:58:32.782Z,99262.97
2022-10-24T19:01:00.662Z,99254.72
2022-10-24T19:03:33.727Z,99280.22
2022-10-24T19:06:22.889Z,99274.91
2022-10-24T19:08:57.161Z,99275.75
2022-10-24T19:11:41.159Z,99256.88
2022-10-24T19:14:08.325Z,99271.28
2022-10-24T19:16:35.320Z,99267.28
2022-10-24T19:19:02.974Z,99289.69
2022-10-24T19:21:30.700Z,99280.88
2022-10-24T19:23:57.830Z,99284.34
2022-10-24T19:26:24.852Z,99294.13
2022-10-24T19:28:51.867Z,99291.13
2022-10-24T19:31:19.204Z,99295.94
2022-10-24T19:33:46.214Z,99285.31
2022-10-24T19:36:19.055Z,99285.47
2022-10-24T19:38:46.604Z,99294.75
2022-10-24T19:41:16.720Z,99299.41
2022-10-24T19:43:43.610Z,99300.03
2022-10-24T19:46:26.199Z,99302.53
2022-10-24T19:48:53.331Z,99299.03
2022-10-24T19:51:25.198Z,99295.69
2022-10-24T19:53:52.405Z,99303.50
2022-10-24T19:56:25.200Z,99302.19
2022-10-24T19:58:54.973Z,99304.13
2022-10-24T20:01:24.674Z,99319.81
2022-10-24T20:03:52.148Z,99302.75
2022-10-24T20:06:19.948Z,99301.56
2022-10-24T20:08:47.715Z,99307.72
2022-10-24T20:11:16.114Z,99308.34
2022-10-24T20:13:44.244Z,99303.84
2022-10-24T20:16:11.365Z,99301.06
2022-10-24T20:18:39.191Z,99310.50
2022-10-24T20:21:08.446Z,99303.72
2022-10-24T20:23:36.667Z,99304.38
2022-10-24T20:26:10.884Z,99311.84
2022-10-24T20:28:43.376Z,99310.63
2022-10-24T20:31:26.327Z,99312.75
2022-10-24T20:33:53.551Z,99311.25
2022-10-24T20:36:23.309Z,99317.59
2022-10-24T20:38:50.493Z,99320.34
2022-10-24T20:41:17.804Z,99325.28
2022-10-24T20:43:45.053Z,99325.28
2022-10-24T20:46:12.161Z,99333.56
2022-10-24T20:48:39.459Z,99333.38
2022-10-24T20:51:10.623Z,99334.00
2022-10-24T20:53:37.998Z,99333.94
2022-10-24T20:56:10.837Z,99331.63
2022-10-24T20:58:39.570Z,99342.38
2022-10-24T21:01:11.939Z,99332.25
2022-10-24T21:03:39.508Z,99339.19
2022-10-24T21:06:14.048Z,99347.34
2022-10-24T21:08:41.102Z,99342.50
2022-10-24T21:11:08.122Z,99336.50
2022-10-24T21:13:35.096Z,99351.19
2022-10-24T21:16:02.355Z,99342.72
2022-10-24T21:18:29.320Z,99346.81
2022-10-24T21:20:56.389Z,99358.69
2022-10-24T21:23:23.401Z,99351.56
2022-10-24T21:25:50.337Z,99355.19
2022-10-24T21:28:17.493Z,99357.84
2022-10-24T21:30:44.420Z,99360.97
2022-10-24T21:33:11.395Z,99372.94
2022-10-24T21:35:39.562Z,99376.44
2022-10-24T21:38:06.704Z,99372.75
2022-10-24T21:40:33.645Z,99367.75
2022-10-24T21:43:01.924Z,99371.00
2022-10-24T21:45:30.804Z,99377.34
2022-10-24T21:47:57.788Z,99386.56
2022-10-24T21:50:24.733Z,99384.22
2022-10-24T21:52:51.791Z,99380.22
2022-10-24T21:55:18.763Z,99373.88
2022-10-24T21:57:45.773Z,99380.00
2022-10-24T22:00:13.578Z,99387.31
2022-10-24T22:02:40.626Z,99395.84
2022-10-24T22:05:07.815Z,99402.72
2022-10-24T22:07:34.997Z,99396.75
2022-10-24T22:10:01.853Z,99393.13
2022-10-24T22:12:30.525Z,99406.47
2022-10-24T22:14:57.591Z,99399.16
2022-10-24T22:17:24.507Z,99403.06
2022-10-24T22:19:51.479Z,99409.63
2022-10-24T22:22:18.555Z,99401.41
2022-10-24T22:24:45.625Z,99410.00
2022-10-24T22:27:12.696Z,99414.59
2022-10-24T22:29:39.620Z,99417.94
2022-10-24T22:32:06.931Z,99418.63
2022-10-24T22:34:34.252Z,99420.44
2022-10-24T22:37:22.470Z,99427.81
2022-10-24T22:39:50.020Z,99424.50
2022-10-24T22:42:19.316Z,99422.31
2022-10-24T22:44:47.925Z,99429.09
2022-10-24T22:47:37.070Z,99425.47
2022-10-24T22:50:28.931Z,99425.34
2022-10-24T22:52:56.327Z,99419.22
2022-10-24T22:55:34.934Z,99419.38
2022-10-24T22:58:02.160Z,99431.06
2022-10-24T23:00:29.794Z,99438.16
2022-10-24T23:03:21.021Z,99434.09
2022-10-24T23:05:54.787Z,99430.06
2022-10-24T23:08:47.894Z,99421.31
2022-10-24T23:11:15.161Z,99432.03
2022-10-24T23:13:43.080Z,99432.88
2022-10-24T23:16:36.623Z,99434.09
2022-10-24T23:19:18.894Z,99433.00
2022-10-24T23:21:56.371Z,99435.34
2022-10-24T23:24:23.703Z,99441.91
2022-10-24T23:27:11.904Z,99439.28
2022-10-24T23:29:42.006Z,99443.63
2022-10-24T23:32:22.471Z,99434.03
2022-10-24T23:34:50.267Z,99444.06
2022-10-24T23:37:39.566Z,99433.91
2022-10-24T23:40:32.799Z,99442.09
2022-10-24T23:43:00.414Z,99435.16
2022-10-24T23:45:31.916Z,99443.09
2022-10-24T23:48:11.674Z,99437.13
2022-10-24T23:51:02.863Z,99441.44
2022-10-24T23:53:53.027Z,99433.25
2022-10-24T23:56:27.663Z,99440.34
2022-10-24T23:58:55.080Z,99433.94
